• Join FlightAware (Why Join?)
  • Login
  • US Flag 
12:52PM EDT


 

Airport Tracker/Info


-or-


 

Live Flight TrackerFlight Track Log ✈ N888FM ✈ 21-Jul-2014 ✈ KAVP - KIAD

Flight Track Log - Related Links

Times and Time Zones

All times are in EDT time to prevent confusion due to time zone crossing. See the N888FM flight status page for this flight to view local times or setup timezone preferences in your user account.

Time Position Orientation Groundspeed Altitude Reporting Facility
EDT Latitude Longitude Course Direction KTS MPH feet Rate Location/Type
09:36PM 41.2147 -75.8072 204° Southwest 190 219 5,600  Level New York Center
09:37PM 41.1492 -75.8300 195° South 222 255 6,900 1,200 Climbing New York Center
09:38PM 41.0897 -75.8558 198° South 231 266 8,100 1,200 Climbing New York Center
09:39PM 41.0258 -75.8842 198° South 237 273 9,300 1,140 Climbing New York Center
09:40PM 40.9673 -75.8331 198° South  Level FlightAware Approximate
09:40PM 40.9644 -75.9125 199° South 237 273 10,400  Level New York Center
09:41PM 40.9063 -75.8729 204° Southwest  Level FlightAware Approximate
09:41PM 40.9089 -75.9383 199° South 237 273 11,600  Level New York Center
09:42PM 40.8494 -75.9669 200° South 232 267 12,800 1,080 Climbing New York Center
09:43PM 40.7814 -75.9972 199° South 232 267 13,800 960 Climbing New York Center
09:44PM 40.7319 -76.0292 206° Southwest 232 267 14,800 900 Climbing New York Center
09:45PM 40.6817 -76.0828 219° Southwest 232 267 15,700 600 Climbing New York Center
09:46PM 40.6267 -76.1469 205° Southwest 239 275 16,000 60 Climbing New York Center
09:47PM 40.6338 -76.1732 205° Southwest  Level FlightAware Approximate
09:49PM 40.4681 -76.3308 221° Southwest 273 314 16,000  Level New York Center
09:50PM 40.4064 -76.4022 221° Southwest 273 314 16,000  Level New York Center
09:51PM 40.3492 -76.4658 220° Southwest 273 314 16,000  Level New York Center
09:52PM 40.2917 -76.5344 222° Southwest 273 314 16,000 -120 Level New York Center
09:53PM 40.2408 -76.5928 221° Southwest 273 314 15,800 -840 Descending New York Center
09:56PM 40.1000 -76.7500 221° Southwest 326 375 13,400 -1,080 Descending Potomac TRACON
09:57PM 40.0333 -76.8333 224° Southwest 299 344 12,400 -720 Descending Potomac TRACON
09:58PM 39.9667 -76.9000 217° Southwest 271 312 12,000 -240 Descending Potomac TRACON
09:59PM 39.9167 -76.9667 226° Southwest 259 298 12,000  Level Potomac TRACON
10:00PM 39.8667 -77.0333 226° Southwest 270 311 12,000  Level Potomac TRACON
10:01PM 39.8000 -77.1000 218° Southwest 275 316 12,000 -540 Level Potomac TRACON
10:02PM 39.7500 -77.1667 226° Southwest 284 327 11,000 -1,020 Descending Potomac TRACON
10:03PM 39.6833 -77.2333 218° Southwest 287 330 9,900 -1,080 Descending Potomac TRACON
10:04PM 39.6333 -77.3333 237° Southwest 279 321 8,800 -1,020 Descending Potomac TRACON
10:06PM 39.5000 -77.4000 201° Southwest 270 311 7,000 -660 Descending Potomac TRACON
10:07PM 39.4500 -77.4500 218° Southwest 246 283 7,000 -300 Level Potomac TRACON
10:08PM 39.3833 -77.4500 180° South 246 283 6,400 -900 Descending Potomac TRACON
10:09PM 39.3000 -77.4500 180° South 241 277 5,300 -1,320 Descending Potomac TRACON
10:10PM 39.2500 -77.4500 180° South 222 255 3,800 -1,200 Descending Potomac TRACON
10:11PM 39.1833 -77.4500 180° South 198 228 3,000 -420 Descending Potomac TRACON
10:12PM 39.1333 -77.4500 180° South 163 188 3,000 -180 Level Potomac TRACON
10:13PM 39.1000 -77.4500 180° South 164 189 2,700 -600 Descending Potomac TRACON
10:14PM 39.0500 -77.4500 180° South 128 147 1,900 -780 Descending Potomac TRACON
10:15PM 39.0167 -77.4667 201° Southwest 128 147 1,300 -600 Descending Potomac TRACON
10:16PM 38.9833 -77.4667 180° South 108 124 700 -600 Descending Potomac TRACON
10:18PM 38.9474 -77.4599 90° East  Level Estimated
10:25PM 38.9474 -77.4599 90° East  Level Estimated
10:26PM 38.9474 -77.4599 90° East  Level Estimated
10:27PM 38.9474 -77.4599 90° East  Level Estimated
10:28PM 38.9474 -77.4599 90° East  Level Estimated